Time;durP1;ratioP1;P1;durP2;ratioP2;P2;SDS_P1;SDS_P2;PMS_P1;PMS_P2;Temp;Humidity;BMP_temperature;BMP_pressure;BME280_temperature;BME280_humidity;BME280_pressure;Samples;Min_cycle;Max_cycle;Signal;HPM_P1;HPM_P2
2021/12/19 00:08:27;;;;;;;2.40;2.30;;;3.80;87.40;2.80;99917.00;;;;5116249;28;20222;-72
2021/12/19 00:10:27;;;;;;;1.97;1.77;;;3.80;87.90;3.00;99917.00;;;;5116472;28;20209;-72
2021/12/19 00:12:55;;;;;;;3.47;3.27;;;3.80;87.60;3.00;99924.00;;;;5116417;28;20217;-72
2021/12/19 00:15:22;;;;;;;2.53;2.33;;;3.90;87.60;3.00;99914.00;;;;5115726;28;20194;-73
2021/12/19 00:17:49;;;;;;;2.73;2.53;;;3.90;87.50;3.00;99908.00;;;;5115386;28;20225;-73
2021/12/19 00:20:15;;;;;;;2.53;1.67;;;3.80;87.50;3.00;99912.00;;;;5116408;28;20210;-72
2021/12/19 00:22:43;;;;;;;4.07;2.00;;;3.80;87.90;3.00;99900.00;;;;5116481;28;20206;-72
2021/12/19 00:25:12;;;;;;;3.00;2.80;;;3.90;87.70;3.00;99884.00;;;;5116297;28;20222;-72
2021/12/19 00:27:41;;;;;;;2.50;2.10;;;3.90;87.50;3.00;99883.00;;;;5116248;28;20206;-72
2021/12/19 00:30:08;;;;;;;3.17;2.67;;;3.90;87.60;3.00;99883.00;;;;5116319;28;20194;-72
2021/12/19 00:32:35;;;;;;;2.37;2.17;;;3.90;87.60;3.00;99882.00;;;;5116309;28;20731;-72
2021/12/19 00:35:01;;;;;;;1.83;1.73;;;3.90;87.70;3.00;99878.00;;;;5116132;28;20210;-72
2021/12/19 00:37:28;;;;;;;2.30;2.10;;;3.90;88.60;3.10;99885.00;;;;5115964;28;20208;-72
2021/12/19 00:39:58;;;;;;;1.57;1.50;;;3.90;86.80;2.90;99876.00;;;;5116068;28;20234;-72
2021/12/19 00:42:32;;;;;;;2.30;2.20;;;3.80;86.70;2.80;99871.00;;;;5115961;28;20684;-72
2021/12/19 00:45:02;;;;;;;2.20;2.07;;;3.80;87.70;2.90;99884.00;;;;5097978;28;20216;-72
2021/12/19 00:47:29;;;;;;;2.63;2.20;;;3.70;87.60;2.80;99863.00;;;;5115908;28;20221;-72
2021/12/19 00:49:56;;;;;;;3.60;2.37;;;3.70;87.50;2.80;99866.00;;;;5116103;28;20190;-72
2021/12/19 00:52:23;;;;;;;2.53;2.30;;;3.60;87.70;2.70;99862.00;;;;5115945;28;20230;-73
2021/12/19 00:54:49;;;;;;;3.27;2.60;;;3.60;88.00;2.70;99847.00;;;;5115778;28;20546;-72
2021/12/19 00:57:17;;;;;;;3.93;3.00;;;3.60;88.30;2.70;99859.00;;;;5115753;28;20216;-71
2021/12/19 00:59:43;;;;;;;2.47;2.37;;;3.60;88.40;2.60;99861.00;;;;5115731;28;20201;-72
2021/12/19 01:02:10;;;;;;;3.20;1.97;;;3.60;88.50;2.50;99859.00;;;;5115813;28;20609;-72
2021/12/19 01:04:36;;;;;;;3.13;2.57;;;3.50;88.80;2.50;99855.00;;;;5097745;28;20312;-72
2021/12/19 01:07:03;;;;;;;3.63;3.43;;;3.40;89.30;2.60;99856.00;;;;5115823;28;20283;-72
2021/12/19 01:09:31;;;;;;;2.17;1.87;;;3.50;89.50;2.70;99852.00;;;;5115681;28;20190;-72
2021/12/19 01:11:57;;;;;;;1.73;1.63;;;3.50;89.50;2.80;99852.00;;;;5097857;28;20768;-71
2021/12/19 01:14:25;;;;;;;1.37;1.37;;;3.60;89.20;2.90;99849.00;;;;5097639;28;20278;-72
2021/12/19 01:16:51;;;;;;;2.47;2.30;;;3.70;89.30;2.80;99845.00;;;;5115611;28;20284;-72
2021/12/19 01:19:18;;;;;;;2.63;2.43;;;3.70;88.40;2.80;99851.00;;;;5115458;28;20202;-72
2021/12/19 01:21:45;;;;;;;2.37;2.17;;;3.60;88.30;2.80;99847.00;;;;5115437;28;20202;-72
2021/12/19 01:24:12;;;;;;;2.80;2.70;;;3.70;88.40;2.80;99854.00;;;;5115314;28;20316;-72
2021/12/19 01:26:39;;;;;;;1.33;1.27;;;3.60;88.30;2.80;99854.00;;;;5097253;28;20265;-72
2021/12/19 01:29:07;;;;;;;4.10;3.17;;;3.70;88.50;2.70;99849.00;;;;5114336;28;20191;-72
2021/12/19 01:31:35;;;;;;;3.27;2.97;;;3.70;88.40;2.70;99842.00;;;;5115302;28;20245;-72
2021/12/19 01:34:01;;;;;;;2.63;2.43;;;3.60;88.30;2.70;99846.00;;;;5115228;28;20264;-72
2021/12/19 01:36:28;;;;;;;2.77;1.80;;;3.60;89.10;2.90;99854.00;;;;5115155;28;20254;-71
2021/12/19 01:38:54;;;;;;;1.87;1.77;;;3.60;88.50;2.90;99861.00;;;;5097377;28;20288;-72
2021/12/19 01:41:21;;;;;;;2.20;2.10;;;3.70;87.60;2.90;99862.00;;;;5115173;28;20208;-72
2021/12/19 01:43:50;;;;;;;2.50;2.30;;;3.70;87.20;2.90;99859.00;;;;5115025;28;20300;-72
2021/12/19 01:46:16;;;;;;;1.90;1.80;;;3.70;87.10;3.00;99860.00;;;;5115085;28;20201;-72
2021/12/19 01:48:46;;;;;;;1.97;1.87;;;3.70;87.20;2.80;99854.00;;;;5114937;28;20205;-72
2021/12/19 01:51:13;;;;;;;2.93;1.77;;;3.70;86.50;2.80;99853.00;;;;5096915;28;20233;-72
2021/12/19 01:53:40;;;;;;;1.43;1.43;;;3.70;86.80;2.60;99862.00;;;;5096867;28;20350;-72
2021/12/19 01:56:07;;;;;;;2.53;2.33;;;3.60;86.80;2.60;99860.00;;;;5114821;28;20651;-71
2021/12/19 01:58:37;;;;;;;1.23;1.13;;;3.50;87.10;2.60;99851.00;;;;5114835;28;20210;-72
2021/12/19 02:01:06;;;;;;;3.17;2.17;;;3.50;87.50;2.70;99852.00;;;;5114806;28;20209;-72
2021/12/19 02:03:35;;;;;;;3.70;3.37;;;3.60;87.80;2.80;99857.00;;;;5114819;28;20207;-72
2021/12/19 02:06:06;;;;;;;1.93;1.83;;;3.60;87.80;3.00;99858.00;;;;5114897;28;20196;-72
2021/12/19 02:08:32;;;;;;;2.50;2.30;;;3.70;88.30;3.00;99864.00;;;;5114729;28;20347;-72
2021/12/19 02:10:59;;;;;;;2.77;2.57;;;3.70;88.00;2.80;99861.00;;;;5096974;28;20312;-72
2021/12/19 02:13:25;;;;;;;2.43;2.27;;;3.60;86.40;2.70;99858.00;;;;5114658;28;20647;-72
2021/12/19 02:15:52;;;;;;;1.57;1.57;;;3.60;86.90;2.50;99852.00;;;;5114776;28;20208;-72
2021/12/19 02:18:22;;;;;;;2.20;1.70;;;3.40;86.90;2.60;99845.00;;;;5114888;28;20260;-72
2021/12/19 02:20:54;;;;;;;1.57;1.47;;;3.50;87.80;2.60;99845.00;;;;5114940;28;20174;-72
2021/12/19 02:23:26;;;;;;;2.37;1.73;;;3.40;87.90;2.60;99845.00;;;;5114467;28;20200;-72
2021/12/19 02:25:55;;;;;;;4.10;2.13;;;3.40;88.20;2.50;99837.00;;;;5114738;28;20230;-72
2021/12/19 02:28:22;;;;;;;1.40;1.30;;;3.30;88.20;2.70;99823.00;;;;5096824;28;20197;-72
2021/12/19 02:30:50;;;;;;;1.63;1.53;;;3.50;88.30;2.70;99822.00;;;;5114387;28;20898;-72
2021/12/19 02:33:21;;;;;;;2.60;2.17;;;3.50;87.60;2.50;99818.00;;;;5096450;28;20221;-72
2021/12/19 02:35:55;;;;;;;3.03;2.83;;;3.50;87.20;2.60;99808.00;;;;5114472;28;20204;-72
2021/12/19 02:39:17;;;;;;;2.07;1.97;;;3.40;87.80;2.50;99836.00;;;;5114271;28;20248;-72
2021/12/19 02:49:41;;;;;;;2.33;2.17;;;3.70;87.70;2.80;99810.00;;;;5106698;28;20231;-72
2021/12/19 02:52:16;;;;;;;1.97;1.87;;;3.60;87.50;2.70;99812.00;;;;5117851;28;20284;-72
2021/12/19 02:54:44;;;;;;;1.87;1.77;;;3.60;87.50;2.70;99800.00;;;;5117869;28;20221;-71
2021/12/19 02:57:11;;;;;;;2.03;1.73;;;3.50;87.50;2.50;99808.00;;;;5117886;28;20221;-73
2021/12/19 02:59:38;;;;;;;1.30;1.23;;;3.50;87.70;2.50;99803.00;;;;5117768;28;20197;-72
2021/12/19 03:02:05;;;;;;;2.10;2.00;;;3.40;87.70;2.60;99810.00;;;;5117680;28;20203;-72
2021/12/19 03:04:31;;;;;;;1.60;1.50;;;3.40;88.30;2.60;99812.00;;;;5099512;28;20530;-72
2021/12/19 03:07:01;;;;;;;2.60;2.40;;;3.40;88.20;2.70;99807.00;;;;5117576;28;20198;-72
2021/12/19 03:09:50;;;;;;;2.30;2.10;;;3.50;89.20;2.60;99802.00;;;;5117624;28;20842;-72
2021/12/19 03:12:29;;;;;;;7.33;3.37;;;3.50;87.70;2.50;99795.00;;;;5099624;28;20202;-72
2021/12/19 03:17:59;;;;;;;1.73;1.63;;;3.30;88.20;2.60;99785.00;;;;5116550;28;20323;-72
2021/12/19 03:20:26;;;;;;;2.30;1.97;;;3.40;88.60;2.60;99785.00;;;;5099563;28;20324;-72
2021/12/19 03:22:53;;;;;;;3.07;2.87;;;3.40;87.60;2.50;99798.00;;;;5117522;28;20488;-71
2021/12/19 03:25:19;;;;;;;4.73;2.47;;;3.40;87.80;2.40;99784.00;;;;5117352;28;20205;-72
2021/12/19 03:27:48;;;;;;;1.17;1.17;;;3.30;88.20;2.40;99749.00;;;;5117188;28;20293;-72
2021/12/19 03:30:15;;;;;;;2.17;2.07;;;3.20;88.10;2.30;99779.00;;;;5099408;28;20316;-72
2021/12/19 03:32:42;;;;;;;1.23;1.23;;;3.10;88.30;2.20;99785.00;;;;5117193;28;20242;-72
2021/12/19 03:35:09;;;;;;;3.10;2.87;;;3.20;88.80;2.30;99782.00;;;;5117025;28;20247;-72
2021/12/19 03:37:35;;;;;;;1.77;1.67;;;3.10;88.90;2.40;99780.00;;;;5116912;28;20649;-72
2021/12/19 03:40:10;;;;;;;0.97;0.97;;;3.20;89.20;2.10;99774.00;;;;5116944;28;20219;-72
2021/12/19 03:42:40;;;;;;;1.73;1.63;;;3.10;88.70;2.10;99783.00;;;;5117095;28;20230;-71
2021/12/19 03:45:14;;;;;;;1.50;1.33;;;3.00;89.30;2.30;99775.00;;;;5116954;28;20769;-72
2021/12/19 03:47:42;;;;;;;1.10;1.10;;;3.10;89.60;2.30;99770.00;;;;5116917;28;20263;-74
2021/12/19 03:50:13;;;;;;;2.73;2.40;;;3.20;89.50;2.30;99770.00;;;;5116194;28;20224;-72
2021/12/19 03:52:39;;;;;;;3.43;2.03;;;3.30;89.20;2.30;99779.00;;;;5116724;28;20205;-72
2021/12/19 03:55:08;;;;;;;5.47;2.27;;;3.20;89.20;2.40;99772.00;;;;5116989;28;20369;-73
2021/12/19 03:57:36;;;;;;;1.63;1.57;;;3.30;89.50;2.50;99771.00;;;;5116767;28;20226;-72
2021/12/19 04:00:10;;;;;;;1.90;1.80;;;3.40;89.30;2.50;99781.00;;;;5116900;28;20204;-72
2021/12/19 04:02:37;;;;;;;1.73;1.67;;;3.40;88.90;2.50;99770.00;;;;5116743;28;20244;-72
2021/12/19 04:05:07;;;;;;;4.43;2.47;;;3.40;88.60;2.50;99762.00;;;;5099036;28;20205;-72
2021/12/19 04:07:33;;;;;;;2.53;2.23;;;3.40;88.40;2.50;99755.00;;;;5116899;28;20652;-72
2021/12/19 04:10:03;;;;;;;1.70;1.60;;;3.30;87.20;2.50;99764.00;;;;5116919;28;20220;-72
2021/12/19 04:12:30;;;;;;;2.27;2.17;;;3.30;88.00;2.40;99762.00;;;;5116795;28;20227;-71
2021/12/19 04:14:57;;;;;;;1.90;1.63;;;3.30;86.80;2.20;99745.00;;;;5116653;28;20713;-72
2021/12/19 04:17:25;;;;;;;1.63;1.53;;;3.20;87.10;2.10;99751.00;;;;5116651;28;20235;-72
2021/12/19 04:19:52;;;;;;;1.30;1.30;;;3.00;87.90;2.20;99751.00;;;;5098805;28;20213;-72
2021/12/19 04:22:19;;;;;;;1.63;1.57;;;3.10;88.60;2.10;99745.00;;;;5116330;28;20288;-72
2021/12/19 04:24:45;;;;;;;1.80;1.70;;;3.00;88.60;2.20;99724.00;;;;5116469;28;20193;-72
2021/12/19 04:27:14;;;;;;;0.70;0.70;;;3.00;88.80;2.10;99727.00;;;;5116398;28;20196;-72
2021/12/19 04:29:41;;;;;;;2.53;2.33;;;3.00;88.90;2.00;99724.00;;;;5116435;28;20228;-72
2021/12/19 04:32:08;;;;;;;1.70;1.60;;;3.00;88.70;1.80;99724.00;;;;5116275;28;20210;-72
2021/12/19 04:34:37;;;;;;;0.90;0.90;;;2.80;89.00;1.90;99727.00;;;;5098333;28;20776;-72
2021/12/19 04:37:16;;;;;;;1.37;1.37;;;2.80;89.70;2.00;99721.00;;;;5115959;28;20349;-71
2021/12/19 04:39:54;;;;;;;3.23;2.93;;;2.80;89.90;1.90;99714.00;;;;5116464;28;20231;-71
2021/12/19 04:43:24;;;;;;;0.80;0.80;;;2.70;90.90;1.60;99726.00;;;;5098221;28;20319;-72
2021/12/19 04:51:16;;;;;;;1.57;1.53;;;2.60;90.50;1.80;99729.00;;;;5078606;28;20207;-71
2021/12/19 04:53:58;;;;;;;1.40;1.30;;;2.70;91.00;1.80;99725.00;;;;5115980;28;20214;-71
2021/12/19 04:56:36;;;;;;;1.50;1.50;;;2.70;90.30;2.00;99735.00;;;;5115841;28;20254;-71
2021/12/19 04:59:35;;;;;;;0.97;0.97;;;2.80;90.10;2.00;99737.00;;;;5115901;28;20201;-71
2021/12/19 05:02:14;;;;;;;1.03;1.03;;;2.80;90.00;1.90;99733.00;;;;5115434;28;20256;-72
2021/12/19 05:15:49;;;;;;;2.33;2.07;;;2.90;89.30;2.10;99734.00;;;;5115498;28;20241;-71
2021/12/19 05:18:17;;;;;;;1.13;1.13;;;3.00;89.30;2.10;99741.00;;;;5115574;28;20212;-72
2021/12/19 05:20:52;;;;;;;3.57;2.77;;;3.00;89.00;2.00;99727.00;;;;5115392;28;20202;-71
2021/12/19 05:23:24;;;;;;;2.13;1.97;;;2.90;89.10;1.90;99719.00;;;;5115410;28;20243;-72
2021/12/19 05:25:52;;;;;;;1.33;1.33;;;2.80;89.10;1.80;99727.00;;;;5115444;28;20196;-72
2021/12/19 05:28:18;;;;;;;6.50;1.67;;;2.70;89.50;1.60;99733.00;;;;5115297;28;20776;-72
2021/12/19 05:30:45;;;;;;;1.20;1.20;;;2.60;90.70;1.60;99737.00;;;;5115465;28;20205;-72
2021/12/19 05:33:11;;;;;;;1.03;1.03;;;2.50;91.00;1.70;99723.00;;;;5097429;28;20594;-73
2021/12/19 05:45:11;;;;;;;1.37;1.27;;;2.70;91.50;1.60;99679.00;;;;5115308;28;20625;-71
2021/12/19 05:46:58;;;;;;;1.53;1.43;;;2.60;91.10;1.80;99725.00;;;;5097095;28;20586;-72
2021/12/19 05:49:25;;;;;;;1.23;1.20;;;2.70;91.00;1.80;99716.00;;;;5115104;28;20220;-72
2021/12/19 05:51:52;;;;;;;1.13;1.13;;;2.80;90.60;2.00;99707.00;;;;5115215;28;20209;-72
2021/12/19 05:54:19;;;;;;;1.67;1.57;;;2.80;91.40;1.90;99718.00;;;;5114892;28;20323;-72
2021/12/19 05:56:46;;;;;;;0.80;0.80;;;2.80;90.40;1.90;99705.00;;;;5115109;28;20342;-72
2021/12/19 05:59:16;;;;;;;2.43;2.23;;;2.80;91.30;1.90;99701.00;;;;5114990;28;20194;-71
2021/12/19 06:01:43;;;;;;;1.20;1.20;;;2.80;90.50;1.80;99703.00;;;;5114715;28;20196;-72
2021/12/19 06:04:09;;;;;;;2.07;1.97;;;2.70;90.60;1.80;99702.00;;;;5114846;28;20237;-72
2021/12/19 06:06:39;;;;;;;2.23;2.13;;;2.70;91.20;1.80;99684.00;;;;5114935;28;20201;-72
2021/12/19 06:09:06;;;;;;;1.80;1.70;;;2.70;90.70;1.80;99682.00;;;;5096820;28;20227;-71
2021/12/19 06:11:32;;;;;;;1.80;1.70;;;2.70;90.50;1.70;99680.00;;;;5114808;28;20284;-71
2021/12/19 06:14:00;;;;;;;1.77;1.67;;;2.60;90.30;1.70;99683.00;;;;5113831;28;20229;-72
2021/12/19 06:16:26;;;;;;;1.20;1.20;;;2.70;90.20;1.50;99685.00;;;;5114711;28;20655;-71
2021/12/19 06:18:53;;;;;;;1.73;1.60;;;2.50;90.40;1.60;99674.00;;;;5114611;28;20200;-72
2021/12/19 06:21:19;;;;;;;2.27;1.73;;;2.50;91.70;1.50;99671.00;;;;5096736;28;20201;-71
2021/12/19 06:23:46;;;;;;;5.40;1.83;;;2.50;91.20;1.70;99673.00;;;;5114565;28;20230;-71
2021/12/19 06:26:15;;;;;;;1.73;1.63;;;2.60;90.90;1.70;99662.00;;;;5114559;28;20225;-72
2021/12/19 06:28:41;;;;;;;2.60;1.97;;;2.50;91.00;1.70;99624.00;;;;5114333;28;20228;-71
2021/12/19 06:31:09;;;;;;;1.47;1.47;;;2.60;90.60;1.70;99659.00;;;;5114511;28;20243;-72
2021/12/19 06:33:37;;;;;;;3.33;1.43;;;2.60;90.20;1.70;99653.00;;;;5096407;28;20757;-72
2021/12/19 06:36:05;;;;;;;1.00;0.97;;;2.60;90.50;1.80;99660.00;;;;5114579;28;20224;-72
2021/12/19 06:38:32;;;;;;;1.67;1.57;;;2.60;90.40;1.60;99657.00;;;;5114442;28;20271;-72
2021/12/19 06:40:59;;;;;;;4.03;2.23;;;2.60;90.20;1.70;99668.00;;;;5114421;28;20284;-72
2021/12/19 06:43:26;;;;;;;0.83;0.83;;;2.60;90.70;1.70;99651.00;;;;5114296;28;20234;-72
2021/12/19 06:45:55;;;;;;;1.00;1.00;;;2.60;90.70;1.70;99652.00;;;;5114432;28;20568;-71
2021/12/19 06:48:24;;;;;;;2.23;2.03;;;2.60;90.30;1.70;99653.00;;;;5114163;28;20224;-71
2021/12/19 06:50:50;;;;;;;1.60;1.57;;;2.60;90.40;1.70;99660.00;;;;5114225;28;20247;-73
2021/12/19 06:53:19;;;;;;;1.33;1.23;;;2.60;90.20;1.70;99663.00;;;;5114181;28;20201;-72
2021/12/19 06:55:46;;;;;;;1.10;1.10;;;2.60;90.40;1.80;99665.00;;;;5114064;28;20233;-72
2021/12/19 06:58:15;;;;;;;3.47;1.97;;;2.60;90.90;1.50;99657.00;;;;5114067;28;20228;-71
2021/12/19 07:00:42;;;;;;;3.27;3.03;;;2.60;90.90;1.90;99666.00;;;;5114268;28;20621;-72
2021/12/19 07:03:11;;;;;;;1.63;1.53;;;2.70;90.40;1.80;99667.00;;;;5113919;28;20202;-72
2021/12/19 07:05:39;;;;;;;1.20;1.20;;;2.70;89.90;1.80;99667.00;;;;5096172;28;20245;-71
2021/12/19 07:08:06;;;;;;;2.23;2.03;;;2.70;90.10;1.70;99658.00;;;;5096097;28;20322;-72
2021/12/19 07:10:33;;;;;;;1.23;1.10;;;2.60;90.00;1.70;99667.00;;;;5113988;28;20312;-72
2021/12/19 07:13:00;;;;;;;2.40;1.10;;;2.60;90.20;1.60;99645.00;;;;5113999;28;20201;-71
2021/12/19 07:15:30;;;;;;;1.40;1.40;;;2.60;90.40;1.70;99638.00;;;;5113758;28;20762;-72
2021/12/19 07:18:02;;;;;;;5.57;1.67;;;2.60;90.50;1.70;99672.00;;;;5114036;28;20617;-72
2021/12/19 07:20:31;;;;;;;0.90;0.90;;;2.70;90.40;1.80;99660.00;;;;5113893;28;20212;-70
2021/12/19 07:22:59;;;;;;;0.93;0.93;;;2.60;90.40;1.80;99668.00;;;;5113789;28;20209;-72
2021/12/19 07:25:25;;;;;;;1.40;1.40;;;2.70;90.30;1.90;99657.00;;;;5115155;28;20652;-72
2021/12/19 07:27:52;;;;;;;1.10;1.07;;;2.80;89.60;1.90;99660.00;;;;5099344;28;20205;-72
2021/12/19 07:30:19;;;;;;;1.53;1.43;;;2.80;88.90;1.80;99661.00;;;;5117298;28;20204;-72
2021/12/19 07:32:46;;;;;;;3.23;1.20;;;2.70;89.10;1.90;99661.00;;;;5117109;28;20192;-72
2021/12/19 07:35:13;;;;;;;2.60;2.07;;;2.70;89.60;1.90;99674.00;;;;5117080;28;20257;-71
2021/12/19 07:37:41;;;;;;;1.20;1.20;;;2.80;89.40;1.70;99667.00;;;;5117153;28;20201;-72
2021/12/19 07:40:14;;;;;;;1.30;1.27;;;2.70;89.00;1.90;99672.00;;;;5117103;28;20582;-72
2021/12/19 07:42:41;;;;;;;1.57;1.47;;;2.70;89.80;2.00;99666.00;;;;5116934;28;20240;-72
2021/12/19 07:45:08;;;;;;;2.10;2.00;;;2.80;90.00;1.90;99659.00;;;;5116991;28;20700;-71
2021/12/19 07:47:35;;;;;;;0.70;0.70;;;2.80;89.50;1.80;99662.00;;;;5116884;28;20217;-71
2021/12/19 07:50:01;;;;;;;3.40;2.60;;;2.70;89.50;1.80;99660.00;;;;5117023;28;20209;-71
2021/12/19 07:52:28;;;;;;;1.67;1.57;;;2.70;89.70;1.80;99665.00;;;;5116897;28;20349;-71
2021/12/19 07:54:54;;;;;;;1.37;1.37;;;2.70;89.70;1.90;99657.00;;;;5116742;28;20237;-71
2021/12/19 07:57:24;;;;;;;1.13;1.13;;;2.80;89.50;1.90;99662.00;;;;5116786;28;20579;-72
2021/12/19 07:59:50;;;;;;;0.87;0.87;;;2.80;89.30;2.00;99660.00;;;;5116926;28;20201;-71
2021/12/19 08:02:17;;;;;;;1.43;1.43;;;2.80;89.30;2.10;99661.00;;;;5116756;28;20278;-71
2021/12/19 08:04:44;;;;;;;1.73;1.63;;;2.90;89.30;2.00;99649.00;;;;5116669;28;20207;-71
2021/12/19 08:07:12;;;;;;;2.43;1.90;;;2.90;89.00;2.20;99653.00;;;;5116598;28;20267;-72
2021/12/19 08:09:56;;;;;;;1.17;1.17;;;2.90;88.90;1.90;99635.00;;;;5116494;28;20249;-71
2021/12/19 08:12:23;;;;;;;0.70;0.70;;;2.90;88.70;2.10;99639.00;;;;5098372;28;20216;-71
2021/12/19 08:14:49;;;;;;;1.07;1.07;;;2.90;88.70;2.00;99629.00;;;;5116283;28;20225;-72
2021/12/19 08:17:17;;;;;;;1.07;1.07;;;2.90;88.90;2.10;99631.00;;;;5116534;28;20644;-72
2021/12/19 08:19:44;;;;;;;1.10;1.10;;;2.90;89.20;2.10;99621.00;;;;5116441;28;20204;-72
2021/12/19 08:22:13;;;;;;;1.40;1.33;;;3.00;89.30;2.10;99626.00;;;;5116388;28;20231;-73
2021/12/19 08:24:40;;;;;;;1.10;1.10;;;3.00;88.90;2.00;99635.00;;;;5116423;28;20209;-72
2021/12/19 08:27:07;;;;;;;1.37;1.27;;;2.90;88.80;2.20;99633.00;;;;5098215;28;20219;-72
2021/12/19 08:29:34;;;;;;;1.33;1.33;;;3.00;88.10;2.10;99638.00;;;;5116287;28;20644;-72
2021/12/19 08:32:04;;;;;;;0.77;0.77;;;3.00;88.30;2.10;99638.00;;;;5116103;28;20224;-72
2021/12/19 08:34:33;;;;;;;1.33;1.33;;;3.00;88.30;2.10;99638.00;;;;5116077;28;20644;-72
2021/12/19 08:36:59;;;;;;;1.40;1.30;;;3.00;88.70;2.10;99630.00;;;;5115853;28;20194;-72
2021/12/19 08:39:28;;;;;;;1.33;1.23;;;3.00;88.40;2.00;99632.00;;;;5116172;28;20200;-72
2021/12/19 08:41:55;;;;;;;2.10;1.93;;;3.00;88.50;2.10;99628.00;;;;5115941;28;20217;-72
2021/12/19 08:44:23;;;;;;;5.13;1.43;;;3.00;88.50;2.10;99619.00;;;;5116163;28;20190;-72
2021/12/19 08:46:51;;;;;;;0.80;0.80;;;3.00;88.30;2.40;99623.00;;;;5116010;28;20288;-72
2021/12/19 08:49:17;;;;;;;0.90;0.90;;;3.20;88.20;2.30;99634.00;;;;5115964;28;20229;-71
2021/12/19 08:51:44;;;;;;;1.77;1.67;;;3.20;87.10;2.50;99625.00;;;;5116002;28;20243;-72
2021/12/19 08:54:10;;;;;;;1.07;1.07;;;3.20;86.90;2.50;99626.00;;;;5115781;28;20672;-72
2021/12/19 08:56:37;;;;;;;0.80;0.80;;;3.30;87.00;2.40;99615.00;;;;5097998;28;20204;-72
2021/12/19 08:59:04;;;;;;;1.10;1.10;;;3.20;86.70;2.40;99611.00;;;;5115694;28;20229;-71
2021/12/19 09:01:33;;;;;;;0.83;0.83;;;3.30;87.40;2.30;99619.00;;;;5116047;28;20178;-72
2021/12/19 09:04:01;;;;;;;3.00;1.60;;;3.30;87.30;2.40;99603.00;;;;5116058;28;20259;-71
2021/12/19 09:06:30;;;;;;;1.87;1.27;;;3.30;87.90;2.40;99604.00;;;;5097866;28;20609;-71
2021/12/19 09:08:56;;;;;;;2.60;1.93;;;3.30;88.10;2.40;99607.00;;;;5115949;28;20202;-71
2021/12/19 09:11:23;;;;;;;1.10;1.10;;;3.30;87.50;2.50;99617.00;;;;5115498;28;20233;-74
2021/12/19 09:13:52;;;;;;;0.97;0.97;;;3.30;88.00;2.60;99616.00;;;;5115343;28;20201;-71
2021/12/19 09:16:19;;;;;;;1.07;1.07;;;3.40;88.00;2.50;99616.00;;;;5115473;28;20230;-72
2021/12/19 09:18:46;;;;;;;1.93;1.83;;;3.40;87.60;2.50;99621.00;;;;5115574;28;20201;-72
2021/12/19 09:21:13;;;;;;;0.70;0.70;;;3.40;87.90;2.40;99623.00;;;;5115380;28;20768;-72
2021/12/19 09:23:40;;;;;;;0.83;0.83;;;3.40;87.70;2.40;99618.00;;;;5115424;28;20211;-72
2021/12/19 09:26:07;;;;;;;2.30;2.10;;;3.30;88.10;2.60;99623.00;;;;5115505;28;20208;-74
2021/12/19 09:28:36;;;;;;;1.50;1.50;;;3.40;88.20;2.60;99624.00;;;;5115302;28;20228;-71
2021/12/19 09:31:03;;;;;;;1.50;1.40;;;3.40;87.60;2.60;99604.00;;;;5115423;28;20193;-71
2021/12/19 09:33:32;;;;;;;1.13;1.07;;;3.40;87.50;2.50;99618.00;;;;5115144;28;20249;-73
2021/12/19 09:35:59;;;;;;;0.83;0.83;;;3.40;87.20;2.30;99622.00;;;;5115222;28;20251;-72
2021/12/19 09:38:27;;;;;;;1.13;1.07;;;3.20;88.00;2.40;99603.00;;;;5115043;28;20521;-72
2021/12/19 09:41:00;;;;;;;1.13;1.13;;;3.20;89.60;2.40;99599.00;;;;5115111;28;20236;-72
2021/12/19 09:43:41;;;;;;;0.70;0.70;;;3.30;88.90;2.50;99598.00;;;;5115119;28;20201;-73
2021/12/19 09:46:14;;;;;;;1.00;1.00;;;3.20;88.90;2.50;99600.00;;;;5115070;28;20208;-73
2021/12/19 09:48:44;;;;;;;3.03;1.13;;;3.30;88.20;2.50;99591.00;;;;5113857;28;20194;-73
2021/12/19 09:51:14;;;;;;;1.17;1.17;;;3.40;88.00;2.50;99595.00;;;;5114932;28;20247;-74
2021/12/19 09:53:42;;;;;;;1.03;1.03;;;3.40;87.70;2.50;99586.00;;;;5114955;28;20558;-73
2021/12/19 09:56:10;;;;;;;1.27;1.27;;;3.40;87.80;2.50;99594.00;;;;5114597;28;20225;-73
2021/12/19 09:58:37;;;;;;;1.60;1.50;;;3.40;88.00;2.70;99571.00;;;;5114772;28;20636;-73
2021/12/19 10:01:08;;;;;;;0.90;0.90;;;3.40;88.40;2.70;99564.00;;;;5114880;28;20665;-76
2021/12/19 10:03:37;;;;;;;0.60;0.60;;;3.50;87.70;2.50;99578.00;;;;5114786;28;20208;-72
2021/12/19 10:06:20;;;;;;;0.80;0.80;;;3.40;87.10;2.70;99555.00;;;;5114625;28;20322;-72
2021/12/19 10:09:06;;;;;;;0.80;0.80;;;3.50;87.50;2.70;99562.00;;;;5114863;28;20346;-72
2021/12/19 10:11:46;;;;;;;0.90;0.90;;;3.50;87.40;2.60;99562.00;;;;5096898;28;20194;-77
2021/12/19 10:14:37;;;;;;;1.00;1.00;;;3.50;87.60;2.60;99567.00;;;;5114573;28;20605;-76
2021/12/19 10:17:06;;;;;;;0.90;0.83;;;3.50;86.70;2.70;99555.00;;;;5109709;28;20573;-75
2021/12/19 10:19:44;;;;;;;0.80;0.80;;;3.50;87.40;2.80;99556.00;;;;5114745;28;20296;-73
2021/12/19 10:22:26;;;;;;;1.57;1.47;;;3.60;87.40;2.90;99561.00;;;;5096721;28;20303;-72
2021/12/19 10:24:54;;;;;;;0.80;0.80;;;3.70;85.90;2.90;99552.00;;;;5114704;28;20174;-73
2021/12/19 10:27:38;;;;;;;0.80;0.80;;;3.70;85.50;3.00;99535.00;;;;5114548;28;20198;-73
2021/12/19 10:30:16;;;;;;;1.00;1.00;;;3.80;85.80;2.90;99540.00;;;;5114514;28;20209;-73
2021/12/19 10:32:55;;;;;;;0.70;0.70;;;3.80;84.80;2.90;99540.00;;;;5114394;28;20607;-73
2021/12/19 10:35:25;;;;;;;1.03;1.00;;;3.70;85.00;3.00;99538.00;;;;5114397;28;20316;-72
2021/12/19 10:37:56;;;;;;;0.83;0.83;;;3.80;85.30;2.90;99536.00;;;;5096597;28;20621;-72
2021/12/19 10:40:25;;;;;;;0.63;0.63;;;3.80;84.50;2.90;99535.00;;;;5114257;28;20280;-75
2021/12/19 10:42:57;;;;;;;1.23;1.20;;;3.80;84.30;2.90;99540.00;;;;5114248;28;20202;-72
2021/12/19 10:45:33;;;;;;;1.03;1.03;;;3.80;84.10;3.10;99522.00;;;;5114356;28;20194;-73
2021/12/19 10:48:23;;;;;;;0.60;0.60;;;3.80;84.90;2.90;99513.00;;;;5096261;28;20201;-73
2021/12/19 10:50:57;;;;;;;0.80;0.80;;;3.80;83.80;3.10;99513.00;;;;5114303;28;20621;-73
2021/12/19 10:53:28;;;;;;;0.77;0.77;;;3.80;83.70;3.00;99510.00;;;;5096334;28;20582;-72
2021/12/19 10:55:59;;;;;;;0.70;0.70;;;3.80;82.90;3.00;99476.00;;;;5114513;28;20224;-72
2021/12/19 10:58:37;;;;;;;0.90;0.90;;;3.80;82.80;3.00;99486.00;;;;5096079;28;20229;-73
2021/12/19 11:01:13;;;;;;;0.60;0.60;;;3.90;82.30;3.10;99502.00;;;;5116400;28;20644;-73
2021/12/19 11:03:55;;;;;;;1.00;1.00;;;3.90;82.90;3.20;99501.00;;;;5099775;28;20250;-72
2021/12/19 11:06:30;;;;;;;0.80;0.80;;;3.90;82.60;2.90;99483.00;;;;5117880;28;20229;-72
2021/12/19 11:08:59;;;;;;;0.70;0.70;;;3.80;82.20;2.90;99478.00;;;;5117756;28;20225;-73
2021/12/19 11:11:50;;;;;;;1.10;1.10;;;3.80;82.00;3.10;99473.00;;;;5099595;28;20738;-72
2021/12/19 11:14:25;;;;;;;1.10;1.10;;;3.80;82.10;3.00;99468.00;;;;5117456;28;20217;-72
2021/12/19 11:16:56;;;;;;;1.00;1.00;;;3.90;82.30;3.10;99467.00;;;;5099752;28;20707;-73
2021/12/19 11:19:23;;;;;;;1.10;1.00;;;3.90;82.70;3.00;99468.00;;;;5117410;28;20309;-72
2021/12/19 11:21:50;;;;;;;0.80;0.80;;;3.90;81.80;3.10;99470.00;;;;5099508;28;20289;-72
2021/12/19 11:24:20;;;;;;;1.07;1.07;;;3.90;82.20;3.00;99467.00;;;;5117208;28;20223;-72
2021/12/19 11:26:52;;;;;;;1.23;1.23;;;3.90;82.40;3.20;99460.00;;;;5117358;28;20197;-72
2021/12/19 11:29:20;;;;;;;1.73;1.63;;;3.90;82.30;3.10;99449.00;;;;5117242;28;20384;-72
2021/12/19 11:31:52;;;;;;;0.80;0.80;;;3.90;82.50;3.20;99451.00;;;;5099285;28;20198;-72
2021/12/19 11:34:46;;;;;;;1.00;1.00;;;3.90;82.30;3.00;99447.00;;;;5117141;28;20257;-72
2021/12/19 11:37:22;;;;;;;0.90;0.90;;;3.90;81.70;3.00;99436.00;;;;5117243;28;20209;-72
2021/12/19 11:39:52;;;;;;;1.50;1.43;;;3.80;82.20;2.90;99442.00;;;;5116985;28;20226;-72
2021/12/19 11:42:29;;;;;;;1.30;1.30;;;3.80;82.40;2.90;99431.00;;;;5117131;28;20221;-72
2021/12/19 11:45:10;;;;;;;0.93;0.93;;;3.80;82.30;2.80;99434.00;;;;5117037;28;20219;-73
2021/12/19 11:47:47;;;;;;;1.43;1.43;;;3.60;82.60;2.80;99428.00;;;;5117099;28;20292;-72
2021/12/19 11:50:22;;;;;;;1.87;1.77;;;3.70;83.40;3.10;99420.00;;;;5116860;28;20235;-73
2021/12/19 11:52:51;;;;;;;0.93;0.93;;;3.80;84.30;3.20;99418.00;;;;5116892;28;20673;-73
2021/12/19 11:55:32;;;;;;;1.17;1.17;;;3.90;83.30;3.20;99392.00;;;;5116612;28;20300;-72
2021/12/19 11:58:38;;;;;;;1.77;1.67;;;4.00;81.40;3.20;99402.00;;;;5098905;28;20281;-72
2021/12/19 12:01:12;;;;;;;1.97;1.77;;;3.90;81.90;3.10;99402.00;;;;5034686;28;20606;-73
2021/12/19 12:03:49;;;;;;;2.50;2.30;;;4.00;81.80;3.10;99405.00;;;;5106283;28;20214;-73
2021/12/19 12:06:41;;;;;;;1.13;1.13;;;3.90;82.80;3.10;99397.00;;;;5098700;28;20625;-73